Time;durP1;ratioP1;P1;durP2;ratioP2;P2;SDS_P1;SDS_P2;PMS_P1;PMS_P2;Temp;Humidity;BMP_temperature;BMP_pressure;BME280_temperature;BME280_humidity;BME280_pressure;Samples;Min_cycle;Max_cycle;Signal;HPM_P1;HPM_P2
2021/06/11 00:00:51;;;;;;;3.45;3.22;;;;;;;19.01;63.33;101018.34;3569395;40;20073;-47
2021/06/11 00:03:19;;;;;;;4.03;3.60;;;;;;;19.15;62.58;101014.84;3569232;40;20139;-47
2021/06/11 00:05:46;;;;;;;3.72;3.42;;;;;;;19.12;62.98;101020.03;3569500;40;20428;-52
2021/06/11 00:08:13;;;;;;;4.55;3.28;;;;;;;18.78;64.48;101015.84;3568594;40;20052;-53
2021/06/11 00:10:40;;;;;;;3.88;3.47;;;;;;;18.55;65.56;101020.19;3569980;40;20045;-51
2021/06/11 00:13:08;;;;;;;4.50;3.70;;;;;;;18.50;66.11;101014.13;3568561;40;20078;-48
2021/06/11 00:15:35;;;;;;;4.53;3.85;;;;;;;18.47;66.70;101021.91;3570491;40;20061;-49
2021/06/11 00:18:03;;;;;;;6.55;4.10;;;;;;;18.40;67.23;101015.88;3568517;40;20042;-51
2021/06/11 00:20:30;;;;;;;3.80;3.60;;;;;;;18.38;67.17;101020.19;3569929;40;20089;-47
2021/06/11 00:22:57;;;;;;;4.57;4.22;;;;;;;18.42;67.71;101015.88;3568718;40;20073;-49
2021/06/11 00:25:25;;;;;;;4.38;4.03;;;;;;;18.63;66.51;101008.06;3569882;40;20061;-48
2021/06/11 00:27:54;;;;;;;4.13;3.70;;;;;;;18.36;67.72;101014.16;3569110;40;20560;-48
2021/06/11 00:30:23;;;;;;;4.47;4.18;;;;;;;18.30;68.43;101016.75;3569429;40;20093;-48
2021/06/11 00:32:51;;;;;;;3.80;3.60;;;;;;;18.32;68.34;101020.22;3569070;40;20052;-46
2021/06/11 00:35:18;;;;;;;4.28;3.88;;;;;;;18.28;68.54;101015.88;3568720;40;20617;-47
2021/06/11 00:37:45;;;;;;;3.65;3.40;;;;;;;18.27;68.50;101016.75;3569025;40;20079;-47
2021/06/11 00:40:13;;;;;;;6.75;4.20;;;;;;;18.31;68.73;101016.75;3568883;40;20053;-49
2021/06/11 00:42:40;;;;;;;5.03;4.07;;;;;;;18.36;68.23;101013.28;3569923;40;20432;-52
2021/06/11 00:45:09;;;;;;;4.50;4.10;;;;;;;18.43;68.16;101015.00;3568318;40;20423;-50
2021/06/11 00:47:37;;;;;;;4.53;4.20;;;;;;;18.61;68.08;101014.09;3569870;40;20085;-49
2021/06/11 00:50:06;;;;;;;4.55;4.20;;;;;;;18.75;67.26;101014.97;3567976;40;20050;-50
2021/06/11 00:52:34;;;;;;;4.15;3.85;;;;;;;18.68;67.57;101014.09;3565804;40;20053;-49
2021/06/11 00:55:02;;;;;;;4.53;4.13;;;;;;;18.70;67.23;101008.94;3567903;40;20470;-50
2021/06/11 00:57:29;;;;;;;4.40;4.00;;;;;;;18.54;68.43;101011.53;3571333;40;20072;-51
2021/06/11 00:59:56;;;;;;;4.32;4.00;;;;;;;18.61;68.28;101014.09;3568914;40;20060;-50
2021/06/11 01:02:24;;;;;;;4.60;4.20;;;;;;;18.63;67.83;101010.66;3569504;40;20085;-47
2021/06/11 01:04:51;;;;;;;5.68;4.40;;;;;;;18.46;nan;101009.81;3568869;40;20093;-48
2021/06/11 01:07:22;;;;;;;4.60;4.20;;;;;;;18.42;69.21;101010.69;3568984;40;20069;-49
2021/06/11 01:09:51;;;;;;;4.75;4.20;;;;;;;18.62;68.39;101008.03;3568793;40;20084;-47
2021/06/11 01:12:19;;;;;;;6.28;4.55;;;;;;;18.57;69.23;101003.72;3568772;40;20433;-47
2021/06/11 01:14:46;;;;;;;4.75;4.22;;;;;;;18.48;68.76;101001.16;3569259;40;20094;-47
2021/06/11 01:17:13;;;;;;;4.65;4.20;;;;;;;18.44;69.98;101008.94;3568112;40;20057;-50
2021/06/11 01:19:47;;;;;;;7.38;4.03;;;;;;;18.40;70.82;101012.44;3569200;40;20053;-53
2021/06/11 01:22:31;;;;;;;4.65;4.20;;;;;;;18.87;68.29;101012.34;3568444;40;20077;-46
2021/06/11 01:25:09;;;;;;;4.20;3.90;;;;;;;18.36;70.43;101014.16;3568229;40;20089;-49
2021/06/11 01:27:39;;;;;;;4.88;4.35;;;;;;;18.73;69.18;101019.31;3565678;40;20157;-51
2021/06/11 01:30:10;;;;;;;4.82;4.38;;;;;;;18.97;68.52;101015.78;3566095;40;20077;-48
2021/06/11 01:32:40;;;;;;;4.00;3.70;;;;;;;19.05;67.71;101012.28;3565864;40;20079;-52
2021/06/11 01:35:16;;;;;;;6.00;4.10;;;;;;;18.79;69.39;101009.75;3563939;40;20072;-47
2021/06/11 01:37:46;;;;;;;4.90;4.53;;;;;;;18.78;68.45;101004.59;3568502;40;20064;-49
2021/06/11 01:40:14;;;;;;;5.32;4.22;;;;;;;18.54;69.67;101008.09;3568202;40;20088;-50
2021/06/11 01:42:45;;;;;;;5.22;4.15;;;;;;;18.92;68.16;101008.00;3569142;40;20077;-46
2021/06/11 01:45:13;;;;;;;4.15;3.75;;;;;;;18.93;67.94;101008.88;3568042;40;20049;-47
2021/06/11 01:47:50;;;;;;;4.85;4.45;;;;;;;18.91;67.80;101003.69;3569246;40;20068;-48
2021/06/11 01:50:25;;;;;;;4.60;4.05;;;;;;;18.52;69.42;101002.88;3568432;40;20049;-49
2021/06/11 01:52:54;;;;;;;5.45;4.22;;;;;;;18.53;69.38;100993.38;3568345;40;20072;-47
2021/06/11 01:55:22;;;;;;;4.75;4.35;;;;;;;18.70;68.68;101004.59;3568845;40;20089;-46
2021/06/11 01:57:49;;;;;;;4.63;4.25;;;;;;;18.60;69.55;101005.47;3568371;40;20136;-50
2021/06/11 02:00:18;;;;;;;5.53;5.03;;;;;;;18.43;70.12;101002.91;3568449;40;20322;-47
2021/06/11 02:02:46;;;;;;;5.07;4.68;;;;;;;18.79;68.92;100996.78;3568839;40;20053;-47
2021/06/11 02:05:14;;;;;;;5.45;4.95;;;;;;;18.59;69.87;101003.75;3568082;40;20092;-49
2021/06/11 02:07:43;;;;;;;7.07;4.63;;;;;;;18.25;71.03;101010.69;3569200;40;20092;-51
2021/06/11 02:10:11;;;;;;;6.05;4.78;;;;;;;18.33;70.82;101007.22;3568061;40;20057;-52
2021/06/11 02:12:39;;;;;;;5.20;4.30;;;;;;;18.55;69.45;101002.88;3569532;40;20057;-51
2021/06/11 02:15:09;;;;;;;5.07;4.63;;;;;;;18.49;70.18;101002.91;3566054;40;20085;-52
2021/06/11 02:17:44;;;;;;;4.85;4.10;;;;;;;18.34;70.71;101005.50;3565672;40;20605;-48
2021/06/11 02:20:14;;;;;;;5.05;4.55;;;;;;;18.39;70.04;101011.53;3566656;40;20118;-49
2021/06/11 02:22:43;;;;;;;4.35;4.00;;;;;;;18.52;69.78;101002.88;3569080;40;20130;-49
2021/06/11 02:25:15;;;;;;;5.18;4.60;;;;;;;18.37;70.07;101007.25;3567776;40;20057;-52
2021/06/11 02:27:44;;;;;;;5.35;4.85;;;;;;;18.10;71.63;101003.78;3568703;40;20049;-50
2021/06/11 02:30:16;;;;;;;5.43;4.90;;;;;;;17.92;72.30;101009.84;3568022;40;20056;-47
2021/06/11 02:32:45;;;;;;;5.57;4.95;;;;;;;17.91;71.94;101008.13;3568999;40;20041;-46
2021/06/11 02:35:15;;;;;;;6.38;5.28;;;;;;;17.60;73.42;101008.91;3567762;40;20085;-47
2021/06/11 02:37:44;;;;;;;5.70;4.95;;;;;;;17.58;73.74;101005.44;3568713;40;20049;-49
2021/06/11 02:40:12;;;;;;;7.78;5.28;;;;;;;17.55;74.37;101006.28;3567699;40;20057;-49
2021/06/11 02:42:41;;;;;;;6.68;5.18;;;;;;;17.39;74.33;101009.72;3568838;40;20057;-49
2021/06/11 02:45:17;;;;;;;6.25;5.13;;;;;;;17.97;71.78;101012.44;3566995;40;20048;-47
2021/06/11 02:48:03;;;;;;;;;;;;;;;17.95;71.08;101007.25;3568896;40;20064;-49
2021/06/11 02:50:35;;;;;;;5.88;5.13;;;;;;;17.51;73.75;101009.75;3570382;40;19958;-51
2021/06/11 02:53:05;;;;;;;6.07;5.47;;;;;;;17.43;74.25;101007.16;3568792;40;20085;-47
2021/06/11 02:55:34;;;;;;;5.90;5.30;;;;;;;17.54;73.61;101002.00;3566442;40;20343;-47
2021/06/11 02:58:16;;;;;;;6.32;5.72;;;;;;;17.41;74.24;101010.59;3568811;40;20057;-48
2021/06/11 03:00:45;;;;;;;5.85;5.30;;;;;;;17.35;74.83;101003.66;3567419;40;20188;-49
2021/06/11 03:03:23;;;;;;;5.63;5.22;;;;;;;17.35;74.89;101006.25;3569241;40;20053;-49
2021/06/11 03:05:53;;;;;;;8.40;6.13;;;;;;;17.27;75.17;101011.41;3569549;40;20049;-48
2021/06/11 03:08:26;;;;;;;5.93;5.53;;;;;;;17.23;75.30;101014.84;3569514;40;20049;-50
2021/06/11 03:11:14;;;;;;;6.65;5.97;;;;;;;17.23;75.63;101016.56;3569359;40;20053;-52
2021/06/11 03:13:42;;;;;;;6.90;6.30;;;;;;;17.22;75.56;101020.00;3567202;40;20077;-49
2021/06/11 03:16:10;;;;;;;7.53;6.82;;;;;;;17.28;74.96;101017.44;3569446;40;20338;-50
2021/06/11 03:18:54;;;;;;;7.13;6.53;;;;;;;17.37;74.62;101016.59;3570210;40;20041;-47
2021/06/11 03:21:25;;;;;;;6.55;5.97;;;;;;;17.39;74.38;101013.19;3567420;40;20081;-51
2021/06/11 03:24:14;;;;;;;7.40;6.53;;;;;;;17.45;73.54;101014.91;3569645;40;20092;-47
2021/06/11 03:26:54;;;;;;;7.03;5.90;;;;;;;17.53;72.90;101019.25;3566888;40;20069;-49
2021/06/11 03:29:32;;;;;;;6.60;6.03;;;;;;;17.71;71.87;101021.03;3569518;40;20083;-47
2021/06/11 03:32:05;;;;;;;6.28;5.80;;;;;;;17.85;71.13;101021.06;3568536;40;20045;-49
2021/06/11 03:34:41;;;;;;;7.18;5.75;;;;;;;17.74;71.97;101020.19;3568148;40;20072;-47
2021/06/11 03:37:12;;;;;;;6.40;5.80;;;;;;;18.33;70.17;101019.34;3564624;40;20044;-46
2021/06/11 03:39:53;;;;;;;7.93;6.20;;;;;;;18.16;70.69;101016.75;3570017;40;20100;-50
2021/06/11 03:42:21;;;;;;;8.88;6.03;;;;;;;18.43;69.20;101017.59;3568622;40;20065;-49
2021/06/11 03:44:50;;;;;;;8.27;6.38;;;;;;;18.40;70.86;101018.47;3569476;40;20061;-49
2021/06/11 03:47:23;;;;;;;7.28;6.30;;;;;;;18.67;69.72;101014.09;3569047;40;20077;-48
2021/06/11 03:49:55;;;;;;;7.30;6.00;;;;;;;18.62;69.89;101018.41;3569061;40;20426;-46
2021/06/11 03:52:25;;;;;;;5.90;5.47;;;;;;;18.25;71.37;101015.88;3570429;40;20600;-47
2021/06/11 03:54:57;;;;;;;7.07;5.97;;;;;;;18.37;71.10;101015.88;3575276;40;20091;-52
2021/06/11 03:57:28;;;;;;;6.63;6.05;;;;;;;18.67;69.73;101014.94;3574095;40;20094;-49
2021/06/11 03:59:56;;;;;;;7.03;5.97;;;;;;;18.03;72.59;101017.63;3568829;40;20080;-49
2021/06/11 04:02:23;;;;;;;6.60;5.97;;;;;;;18.10;72.80;101008.97;3569686;40;20071;-46
2021/06/11 04:04:51;;;;;;;6.20;5.70;;;;;;;18.47;70.81;101006.34;3569273;40;20134;-51
2021/06/11 04:07:23;;;;;;;7.03;6.43;;;;;;;18.29;71.95;101012.41;3569258;40;20077;-53
2021/06/11 04:09:57;;;;;;;7.72;6.22;;;;;;;18.31;71.98;101008.97;3569156;40;20057;-49
2021/06/11 04:12:35;;;;;;;6.97;6.30;;;;;;;18.33;71.70;101014.16;3569603;40;20053;-50
2021/06/11 04:15:04;;;;;;;6.57;5.97;;;;;;;18.06;73.52;101009.84;3568370;40;20034;-51
2021/06/11 04:17:39;;;;;;;7.18;6.32;;;;;;;18.24;73.30;101019.34;3560683;40;20061;-47
2021/06/11 04:20:12;;;;;;;7.43;6.30;;;;;;;18.31;73.38;101008.97;3566550;40;20134;-49
2021/06/11 04:22:45;;;;;;;6.90;6.30;;;;;;;18.35;72.69;101009.84;3569820;40;20061;-51
2021/06/11 04:25:15;;;;;;;7.35;6.45;;;;;;;18.85;69.77;101008.00;3568631;40;20061;-52
2021/06/11 04:27:43;;;;;;;7.05;6.45;;;;;;;18.53;71.93;101009.81;3569624;40;20096;-48
2021/06/11 04:30:13;;;;;;;7.88;5.95;;;;;;;18.64;71.40;101001.16;3568449;40;20427;-48
2021/06/11 04:32:41;;;;;;;6.82;6.03;;;;;;;18.60;72.13;101000.28;3569869;40;20060;-51
2021/06/11 04:35:09;;;;;;;7.90;6.47;;;;;;;18.56;72.19;101004.59;3568185;40;20064;-47
2021/06/11 04:37:38;;;;;;;10.38;7.13;;;;;;;18.58;72.65;101008.06;3569723;40;20077;-46
2021/06/11 04:40:06;;;;;;;9.60;6.85;;;;;;;18.46;72.62;101008.09;3567772;40;20097;-49
2021/06/11 04:42:36;;;;;;;8.18;6.45;;;;;;;18.34;73.32;101008.09;3565776;40;20053;-51
2021/06/11 04:45:04;;;;;;;8.55;6.95;;;;;;;18.46;73.86;101009.81;3567974;40;20444;-51
2021/06/11 04:47:31;;;;;;;9.20;6.78;;;;;;;18.38;73.19;101007.22;3569460;40;20065;-49
2021/06/11 04:49:58;;;;;;;7.57;6.68;;;;;;;18.35;73.75;101011.53;3568117;40;20065;-47
2021/06/11 04:52:25;;;;;;;7.45;6.35;;;;;;;18.52;73.59;101009.81;3569540;40;20399;-51
2021/06/11 04:54:52;;;;;;;7.95;6.50;;;;;;;18.98;70.42;101009.72;3569013;40;20060;-49
2021/06/11 04:57:19;;;;;;;6.90;6.18;;;;;;;19.06;71.39;101011.41;3568768;40;20081;-52
2021/06/11 04:59:46;;;;;;;6.95;6.18;;;;;;;19.38;68.67;101012.13;3568908;40;20101;-47
2021/06/11 05:02:14;;;;;;;8.10;6.65;;;;;;;19.66;68.06;101011.13;3568091;40;20097;-49
2021/06/11 05:04:40;;;;;;;8.55;6.50;;;;;;;19.65;68.28;101013.75;3569553;40;20041;-47
2021/06/11 05:07:07;;;;;;;7.05;6.45;;;;;;;19.55;68.60;101010.28;3567709;40;20069;-52
2021/06/11 05:09:35;;;;;;;8.18;6.60;;;;;;;19.70;69.17;101011.97;3569663;40;20593;-49
2021/06/11 05:12:02;;;;;;;8.45;6.13;;;;;;;19.50;68.84;101012.03;3567280;40;20089;-49
2021/06/11 05:14:29;;;;;;;7.05;6.35;;;;;;;19.80;67.92;101011.88;3569519;40;20053;-49
2021/06/11 05:16:56;;;;;;;8.80;6.15;;;;;;;19.69;67.11;101010.22;3568381;40;20447;-50
2021/06/11 05:19:24;;;;;;;6.82;6.10;;;;;;;20.24;64.85;101010.66;3568838;40;20065;-47
2021/06/11 05:21:51;;;;;;;10.23;6.68;;;;;;;20.17;64.90;101010.75;3568849;40;20053;-47
2021/06/11 05:24:18;;;;;;;8.35;5.80;;;;;;;20.54;63.60;101016.50;3568453;40;20479;-49
2021/06/11 05:26:45;;;;;;;11.68;6.78;;;;;;;20.37;65.23;101010.56;3568898;40;20052;-49
2021/06/11 05:29:12;;;;;;;12.38;6.30;;;;;;;20.52;65.49;101010.41;3567874;40;20077;-49
2021/06/11 05:31:39;;;;;;;6.95;5.88;;;;;;;20.81;63.02;101015.34;3569291;40;20088;-50
2021/06/11 05:34:06;;;;;;;7.45;5.10;;;;;;;20.89;61.84;101012.63;3565758;40;20060;-50
2021/06/11 05:36:33;;;;;;;6.05;5.45;;;;;;;20.98;61.73;101012.50;3565098;40;20477;-47
2021/06/11 05:39:01;;;;;;;9.75;6.00;;;;;;;21.15;61.60;101010.56;3567855;40;20093;-47
2021/06/11 05:41:32;;;;;;;7.20;5.10;;;;;;;21.09;62.25;101015.88;3569461;40;20053;-51
2021/06/11 05:43:59;;;;;;;5.25;4.85;;;;;;;21.45;60.65;101009.34;3567848;40;20329;-52
2021/06/11 05:46:26;;;;;;;5.38;4.60;;;;;;;21.34;58.78;101011.22;3569277;40;20068;-49
2021/06/11 05:48:53;;;;;;;4.28;3.97;;;;;;;21.98;52.92;101009.41;3568520;40;20045;-47
2021/06/11 05:51:21;;;;;;;5.72;3.83;;;;;;;21.57;55.78;101019.56;3567916;40;20071;-52
2021/06/11 05:53:51;;;;;;;5.35;3.92;;;;;;;21.60;54.93;101009.13;3568717;40;20087;-48
2021/06/11 05:56:19;;;;;;;5.97;4.28;;;;;;;21.96;53.94;101013.78;3568465;40;20430;-50
2021/06/11 05:58:48;;;;;;;6.07;4.55;;;;;;;22.17;53.77;101016.06;3568407;40;20074;-48
2021/06/11 06:01:15;;;;;;;5.05;4.45;;;;;;;22.04;54.25;101011.91;3568092;40;20310;-51
2021/06/11 06:03:43;;;;;;;4.40;3.92;;;;;;;22.25;55.10;101008.13;3567116;40;20048;-48
2021/06/11 06:06:11;;;;;;;4.93;4.40;;;;;;;21.99;53.47;101008.50;3566842;40;20124;-51
2021/06/11 06:08:38;;;;;;;4.38;3.97;;;;;;;22.06;55.01;101017.97;3564227;40;20049;-50
2021/06/11 06:11:05;;;;;;;4.90;4.47;;;;;;;21.82;55.44;101014.88;3562902;40;20077;-46
2021/06/11 06:13:33;;;;;;;32.58;5.35;;;;;;;22.28;57.81;101018.50;3563733;40;20064;-46
2021/06/11 06:16:00;;;;;;;11.57;4.45;;;;;;;22.62;53.94;101016.13;3563352;40;20053;-50
2021/06/11 06:18:28;;;;;;;4.20;3.42;;;;;;;22.78;49.43;101012.31;3564141;40;20060;-47
2021/06/11 06:20:55;;;;;;;4.10;3.70;;;;;;;23.00;47.62;101006.72;3563794;40;20053;-49
2021/06/11 06:23:23;;;;;;;5.90;3.60;;;;;;;23.00;47.97;101017.16;3564106;40;20097;-49
2021/06/11 06:25:52;;;;;;;4.50;4.00;;;;;;;23.15;47.95;101003.78;3565235;40;20143;-46
2021/06/11 06:28:19;;;;;;;3.70;3.30;;;;;;;23.13;50.45;101003.81;3567682;40;20093;-46
2021/06/11 06:30:46;;;;;;;5.20;4.70;;;;;;;23.16;49.38;101013.34;3568376;40;20101;-48
2021/06/11 06:33:13;;;;;;;6.47;4.35;;;;;;;23.16;51.36;101009.84;3567733;40;20060;-49
2021/06/11 06:35:40;;;;;;;5.00;4.50;;;;;;;23.00;48.34;101006.72;3568551;40;20078;-50
2021/06/11 06:38:08;;;;;;;4.22;3.72;;;;;;;23.33;49.91;101016.44;3566996;40;20041;-48
2021/06/11 06:40:36;;;;;;;7.43;5.10;;;;;;;23.28;48.38;101012.22;3568901;40;20043;-48
2021/06/11 06:43:03;;;;;;;5.82;5.28;;;;;;;22.83;48.60;101007.91;3565852;40;20085;-49
2021/06/11 06:45:30;;;;;;;5.32;4.60;;;;;;;23.46;47.85;101003.97;3567799;40;20108;-46
2021/06/11 06:47:57;;;;;;;6.97;5.05;;;;;;;23.44;47.36;101007.53;3568472;40;20045;-51
2021/06/11 06:50:24;;;;;;;5.22;4.72;;;;;;;23.48;49.19;101012.66;3569059;40;20496;-46
2021/06/11 06:52:55;;;;;;;5.85;4.55;;;;;;;23.71;49.56;101006.94;3567617;40;20069;-47
2021/06/11 06:55:23;;;;;;;6.43;4.35;;;;;;;24.10;49.16;101004.22;3567717;40;20077;-48
2021/06/11 06:57:50;;;;;;;5.68;4.50;;;;;;;24.22;47.02;101003.91;3567722;40;20543;-48
2021/06/11 07:00:18;;;;;;;5.50;4.60;;;;;;;24.21;47.04;101006.56;3567550;40;20073;-50
2021/06/11 07:02:45;;;;;;;5.18;4.57;;;;;;;24.46;46.56;101005.06;3567725;40;20081;-52
2021/06/11 07:05:15;;;;;;;7.32;4.80;;;;;;;24.79;46.32;101005.03;3566544;40;20117;-52
2021/06/11 07:07:42;;;;;;;7.18;5.47;;;;;;;24.83;45.18;101004.91;3568008;40;20077;-50
2021/06/11 07:10:09;;;;;;;7.45;4.90;;;;;;;24.97;45.75;101004.50;3566692;40;20089;-50
2021/06/11 07:12:36;;;;;;;7.95;6.32;;;;;;;24.78;45.27;101005.94;3568550;40;20057;-51
2021/06/11 07:15:05;;;;;;;10.15;6.38;;;;;;;24.85;44.81;101003.06;3567309;40;20061;-54
2021/06/11 07:17:33;;;;;;;6.50;5.93;;;;;;;24.79;45.63;100994.56;3562472;40;20057;-48
2021/06/11 07:20:00;;;;;;;8.10;5.43;;;;;;;25.11;46.44;101005.00;3568736;40;20796;-48
2021/06/11 07:22:27;;;;;;;6.60;5.97;;;;;;;24.98;45.05;101003.59;3567960;40;20049;-50
2021/06/11 07:24:54;;;;;;;9.25;6.93;;;;;;;24.67;45.41;100994.88;3567991;40;20092;-48
2021/06/11 07:27:22;;;;;;;9.90;6.90;;;;;;;24.97;44.17;100999.25;3568998;40;20078;-49
2021/06/11 07:29:50;;;;;;;7.05;6.35;;;;;;;25.01;44.03;101000.03;3570210;40;20459;-49
2021/06/11 07:32:17;;;;;;;7.28;6.57;;;;;;;25.27;43.40;100996.66;3568534;40;20093;-48
2021/06/11 07:34:55;;;;;;;6.95;5.63;;;;;;;25.74;44.30;101002.16;3568125;40;20454;-45
2021/06/11 07:37:23;;;;;;;6.25;5.65;;;;;;;26.15;43.42;100993.81;3570311;40;20081;-47
2021/06/11 07:39:50;;;;;;;8.20;6.05;;;;;;;26.40;43.48;100991.22;3570141;40;20378;-46
2021/06/11 07:42:19;;;;;;;8.55;6.57;;;;;;;26.21;42.83;101000.66;3569658;40;20041;-47
2021/06/11 07:44:47;;;;;;;8.63;6.60;;;;;;;26.68;41.89;100995.50;3568822;23;20058;-48
2021/06/11 07:47:14;;;;;;;9.90;6.97;;;;;;;26.62;41.53;100991.34;3541744;40;20078;-43
2021/06/11 07:49:43;;;;;;;7.05;6.32;;;;;;;26.33;41.31;100984.44;3541770;40;20062;-43
2021/06/11 07:52:10;;;;;;;8.05;7.20;;;;;;;26.29;42.44;101000.38;3539568;40;20054;-43
2021/06/11 07:54:37;;;;;;;8.18;7.07;;;;;;;25.87;42.32;100985.16;3542147;40;20779;-43
2021/06/11 07:57:04;;;;;;;8.43;7.50;;;;;;;26.48;40.94;100993.59;3543903;40;20072;-45
2021/06/11 07:59:31;;;;;;;7.18;6.47;;;;;;;26.78;41.08;100996.03;3543766;40;20039;-45
2021/06/11 08:01:58;;;;;;;8.85;7.85;;;;;;;27.02;39.64;100991.63;3543854;40;20149;-43
2021/06/11 08:04:26;;;;;;;7.53;6.80;;;;;;;27.53;39.67;101004.56;3544220;40;20435;-45
2021/06/11 08:06:53;;;;;;;9.02;8.10;;;;;;;26.94;39.45;100999.78;3543916;40;20360;-44
2021/06/11 08:09:20;;;;;;;8.00;7.00;;;;;;;27.01;39.88;101003.91;3543942;40;20059;-43
2021/06/11 08:11:47;;;;;;;7.97;7.10;;;;;;;28.15;37.71;100995.88;3543395;40;20102;-44
2021/06/11 08:14:14;;;;;;;9.02;8.13;;;;;;;28.07;37.31;100999.75;3543711;40;20336;-43
2021/06/11 08:16:41;;;;;;;8.90;8.10;;;;;;;28.28;37.50;101001.47;3543864;40;20097;-43
2021/06/11 08:19:11;;;;;;;10.30;6.88;;;;;;;29.15;36.41;101008.16;3543940;40;20058;-46
2021/06/11 08:21:41;;;;;;;8.23;7.38;;;;;;;28.93;36.32;101002.13;3543590;40;20058;-43
2021/06/11 08:24:08;;;;;;;10.52;7.72;;;;;;;28.02;38.21;100994.69;3543799;40;20066;-43
2021/06/11 08:26:35;;;;;;;7.85;7.03;;;;;;;28.03;38.71;100991.13;3543653;40;20039;-43
2021/06/11 08:29:02;;;;;;;9.73;8.45;;;;;;;27.55;37.89;100989.56;3544010;40;20311;-49
2021/06/11 08:31:29;;;;;;;11.02;7.78;;;;;;;27.86;39.79;100994.47;3543250;40;20086;-43
2021/06/11 08:33:56;;;;;;;9.27;7.25;;;;;;;28.27;38.61;100998.91;3543196;40;20160;-43
2021/06/11 08:36:23;;;;;;;10.95;8.77;;;;;;;28.08;38.05;100988.31;3543406;40;20821;-43
2021/06/11 08:38:50;;;;;;;8.88;8.00;;;;;;;27.58;39.35;100988.56;3543606;40;20086;-43
2021/06/11 08:41:19;;;;;;;7.32;6.68;;;;;;;28.03;39.19;100996.41;3543465;40;20452;-43
2021/06/11 08:43:46;;;;;;;7.72;7.13;;;;;;;27.64;39.85;100997.09;3543642;40;20054;-43
2021/06/11 08:46:15;;;;;;;8.45;7.65;;;;;;;27.80;38.42;100997.34;3543519;40;20379;-43
2021/06/11 08:48:42;;;;;;;9.15;8.10;;;;;;;27.60;38.78;100992.03;3543520;40;20054;-43
2021/06/11 08:51:10;;;;;;;10.77;9.40;;;;;;;27.55;37.74;100994.84;3543829;40;20058;-43
2021/06/11 08:53:38;;;;;;;9.52;7.30;;;;;;;27.71;39.28;100989.81;3543743;40;20110;-46
2021/06/11 08:56:05;;;;;;;8.27;6.45;;;;;;;27.81;40.04;100985.03;3544031;40;20094;-46
2021/06/11 08:58:38;;;;;;;11.45;7.72;;;;;;;28.42;37.17;100993.84;3541459;40;20392;-44
2021/06/11 09:01:08;;;;;;;13.13;7.25;;;;;;;28.42;37.54;100991.22;3542292;40;20341;-44
2021/06/11 09:03:52;;;;;;;8.40;7.55;;;;;;;28.14;37.98;100995.94;3541678;40;20523;-44
2021/06/11 09:06:20;;;;;;;8.52;7.68;;;;;;;28.48;38.25;100987.47;3539446;40;20046;-43
2021/06/11 09:08:51;;;;;;;14.38;8.35;;;;;;;28.41;38.47;100988.66;3543367;40;20058;-46
2021/06/11 09:11:27;;;;;;;10.05;8.10;;;;;;;28.61;37.16;100996.53;3543457;40;20090;-43
2021/06/11 09:14:12;;;;;;;8.00;7.32;;;;;;;27.94;37.41;100991.50;3541260;40;20066;-43
2021/06/11 09:16:44;;;;;;;6.95;6.25;;;;;;;28.66;37.81;101002.47;3540642;40;20058;-43
2021/06/11 09:19:17;;;;;;;11.63;7.50;;;;;;;28.87;36.39;100992.72;3539816;40;20054;-44
2021/06/11 09:21:48;;;;;;;9.25;7.30;;;;;;;29.11;37.50;101001.31;3543479;40;20179;-43
2021/06/11 09:24:33;;;;;;;12.60;8.25;;;;;;;29.32;36.13;100999.44;3543442;40;20105;-44
2021/06/11 09:27:02;;;;;;;9.40;7.28;;;;;;;28.97;36.03;100990.53;3543177;40;20050;-46
2021/06/11 09:29:33;;;;;;;8.75;7.00;;;;;;;28.69;36.54;100996.19;3543654;40;20066;-44
2021/06/11 09:32:26;;;;;;;6.47;5.88;;;;;;;29.04;37.50;100989.34;3542927;40;20066;-48
2021/06/11 09:35:05;;;;;;;6.82;6.10;;;;;;;29.28;35.88;100989.13;3541391;40;20060;-45
2021/06/11 09:37:37;;;;;;;7.10;6.10;;;;;;;29.72;36.18;100989.63;3539712;40;20035;-46
2021/06/11 09:40:13;;;;;;;8.13;7.43;;;;;;;29.92;33.25;100993.91;3540135;40;20073;-44
2021/06/11 09:42:41;;;;;;;;;;;;;;;30.82;33.21;100998.97;3540822;40;20054;-44
2021/06/11 09:45:10;;;;;;;6.93;6.18;;;;;;;30.78;32.76;100995.63;3541018;40;19957;-47
2021/06/11 09:47:40;;;;;;;7.90;5.45;;;;;;;30.80;33.26;100991.13;3540395;40;20050;-43
2021/06/11 09:50:17;;;;;;;7.43;6.78;;;;;;;30.62;31.03;100997.38;3540451;40;20132;-47
2021/06/11 09:52:55;;;;;;;7.47;6.70;;;;;;;29.28;32.47;100989.97;3534187;40;20055;-46
2021/06/11 09:55:27;;;;;;;6.07;5.57;;;;;;;31.18;32.65;100994.31;3539734;40;20425;-46
2021/06/11 09:58:13;;;;;;;7.80;6.97;;;;;;;29.86;31.97;100983.66;3538737;40;20090;-46
2021/06/11 10:00:54;;;;;;;11.73;6.22;;;;;;;31.81;29.27;100980.16;3534329;40;20039;-49
2021/06/11 10:03:29;;;;;;;6.30;5.72;;;;;;;31.91;28.92;100981.38;3535864;40;20110;-44
2021/06/11 10:06:01;;;;;;;7.85;5.53;;;;;;;31.52;30.94;100986.28;3533055;40;20054;-44
2021/06/11 10:08:29;;;;;;;5.18;4.75;;;;;;;30.81;32.65;100984.91;3537801;40;20058;-46
2021/06/11 10:10:58;;;;;;;5.80;4.50;;;;;;;29.93;32.59;100979.78;3532720;40;20090;-45
2021/06/11 10:13:26;;;;;;;4.78;4.38;;;;;;;32.03;29.43;100982.44;3533863;40;20043;-44
2021/06/11 10:15:56;;;;;;;3.63;3.42;;;;;;;34.77;26.21;101001.00;3535800;40;20058;-44
2021/06/11 10:18:23;;;;;;;4.05;3.65;;;;;;;35.35;22.05;100987.00;3537157;40;20099;-47
2021/06/11 10:20:51;;;;;;;8.38;3.20;;;;;;;37.52;21.20;100985.19;3538125;40;20180;-47
2021/06/11 10:23:24;;;;;;;3.42;3.17;;;;;;;37.27;20.97;100996.19;3538117;40;20114;-44
2021/06/11 10:25:54;;;;;;;3.80;3.17;;;;;;;34.99;21.73;100981.69;3535609;40;20090;-46
2021/06/11 10:28:51;;;;;;;2.92;2.53;;;;;;;36.07;19.52;100981.63;3537430;40;20421;-43
2021/06/11 10:31:23;;;;;;;3.28;2.33;;;;;;;38.70;19.82;100981.31;3536567;40;20094;-44
2021/06/11 10:33:59;;;;;;;3.35;3.05;;;;;;;38.38;17.95;100994.00;3534642;40;20170;-45
2021/06/11 10:38:56;;;;;;;5.43;2.85;;;;;;;40.17;19.27;100994.72;3533401;40;20133;-44
2021/06/11 10:41:25;;;;;;;4.43;2.85;;;;;;;42.05;15.77;100993.25;3531960;40;20054;-46
2021/06/11 10:43:52;;;;;;;3.33;3.05;;;;;;;38.27;18.48;100981.50;3535396;40;20127;-50
2021/06/11 10:46:21;;;;;;;3.83;2.42;;;;;;;39.10;18.25;100975.06;3536030;40;20043;-48
2021/06/11 10:49:09;;;;;;;3.42;3.08;;;;;;;40.63;16.63;100986.78;3540283;40;20110;-48
2021/06/11 10:51:43;;;;;;;3.10;2.80;;;;;;;42.89;15.23;100998.75;3533728;40;20082;-44
2021/06/11 10:54:19;;;;;;;3.73;2.57;;;;;;;41.01;15.57;100992.97;3541978;40;20054;-46
2021/06/11 10:56:58;;;;;;;3.22;2.67;;;;;;;42.99;14.23;100990.53;3542239;40;20406;-44
2021/06/11 10:59:34;;;;;;;2.78;2.58;;;;;;;42.31;15.89;100995.97;3542303;40;20050;-45
2021/06/11 11:02:02;;;;;;;2.90;2.70;;;;;;;42.64;16.35;101003.22;3538545;40;20050;-45
2021/06/11 11:04:32;;;;;;;3.80;3.03;;;;;;;42.89;15.68;100997.91;3541890;40;20441;-47
2021/06/11 11:07:24;;;;;;;3.85;2.95;;;;;;;43.89;14.18;100999.59;3540606;40;20195;-48
2021/06/11 11:10:07;;;;;;;3.13;2.92;;;;;;;42.19;15.76;100993.50;3542196;40;20136;-46
2021/06/11 11:13:00;;;;;;;3.03;2.70;;;;;;;43.16;14.79;100988.72;3539780;40;20047;-47
2021/06/11 11:15:57;;;;;;;5.00;3.15;;;;;;;42.47;15.06;100987.97;3537034;40;20053;-46
2021/06/11 11:18:33;;;;;;;4.55;2.78;;;;;;;42.95;15.87;100981.94;3523325;40;20419;-45
2021/06/11 11:21:30;;;;;;;2.70;2.50;;;;;;;42.22;15.74;100982.47;3543054;40;20420;-47
2021/06/11 11:24:00;;;;;;;5.10;2.40;;;;;;;42.29;15.11;100971.88;3543079;40;20110;-45
2021/06/11 11:26:37;;;;;;;3.33;2.70;;;;;;;40.27;17.07;100972.38;3543524;40;20058;-46
2021/06/11 11:29:05;;;;;;;5.15;2.47;;;;;;;42.03;17.00;100979.13;3543406;40;20045;-46
2021/06/11 11:31:32;;;;;;;3.60;2.63;;;;;;;41.80;17.86;100979.66;3543906;40;20511;-44
2021/06/11 11:33:59;;;;;;;4.28;2.67;;;;;;;41.60;16.58;100978.09;3543413;40;20051;-45
2021/06/11 11:36:26;;;;;;;2.85;2.65;;;;;;;41.09;18.38;100972.38;3544342;40;20086;-46
2021/06/11 11:38:53;;;;;;;2.45;2.25;;;;;;;42.89;16.41;100979.88;3544077;40;20135;-47
2021/06/11 11:41:21;;;;;;;3.97;2.72;;;;;;;41.87;16.73;100974.47;3543815;40;20042;-45